sensor_id;sensor_type;location;lat;lon;timestamp;pressure;altitude;pressure_sealevel;temperature;humidity
60258;BME280;46115;44.484;11.314;2024-03-23T00:52:48;100172.25;;;11.48;76.42
60258;BME280;46115;44.484;11.314;2024-03-23T00:56:50;100171.88;;;11.54;75.64
60258;BME280;46115;44.484;11.314;2024-03-23T01:00:53;100170.59;;;11.62;76.37
60258;BME280;46115;44.484;11.314;2024-03-23T01:04:54;100161.75;;;11.47;75.79
60258;BME280;46115;44.484;11.314;2024-03-23T01:08:58;100154.03;;;11.42;76.25
60258;BME280;46115;44.484;11.314;2024-03-23T01:13:01;100154.66;;;11.47;75.29
60258;BME280;46115;44.484;11.314;2024-03-23T01:17:03;100160.44;;;11.54;74.78
60258;BME280;46115;44.484;11.314;2024-03-23T01:21:06;100167.13;;;11.75;74.78
60258;BME280;46115;44.484;11.314;2024-03-23T01:25:10;100156.53;;;11.75;74.84
60258;BME280;46115;44.484;11.314;2024-03-23T01:29:11;100153.00;;;11.61;74.83
60258;BME280;46115;44.484;11.314;2024-03-23T01:33:14;100151.03;;;11.64;75.24
60258;BME280;46115;44.484;11.314;2024-03-23T01:37:17;100111.38;;;11.33;75.05
60258;BME280;46115;44.484;11.314;2024-03-23T01:41:20;100132.00;;;11.57;74.78
60258;BME280;46115;44.484;11.314;2024-03-23T01:45:23;100130.41;;;11.69;74.05
60258;BME280;46115;44.484;11.314;2024-03-23T01:49:26;100130.13;;;11.60;74.41
60258;BME280;46115;44.484;11.314;2024-03-23T01:53:28;100122.19;;;11.60;74.29
60258;BME280;46115;44.484;11.314;2024-03-23T01:57:32;100124.06;;;11.57;74.04
60258;BME280;46115;44.484;11.314;2024-03-23T02:01:34;100118.78;;;11.72;73.85
60258;BME280;46115;44.484;11.314;2024-03-23T02:05:37;100121.16;;;11.76;73.75
60258;BME280;46115;44.484;11.314;2024-03-23T02:09:40;100121.91;;;11.80;72.66
60258;BME280;46115;44.484;11.314;2024-03-23T02:13:44;100123.13;;;11.89;72.45
60258;BME280;46115;44.484;11.314;2024-03-23T02:17:46;100118.13;;;11.98;72.23
60258;BME280;46115;44.484;11.314;2024-03-23T02:21:48;100116.06;;;12.03;72.05
60258;BME280;46115;44.484;11.314;2024-03-23T02:25:52;100110.75;;;12.03;71.36
60258;BME280;46115;44.484;11.314;2024-03-23T02:29:55;100099.78;;;11.95;72.47
60258;BME280;46115;44.484;11.314;2024-03-23T02:33:57;100098.66;;;12.13;71.14
60258;BME280;46115;44.484;11.314;2024-03-23T02:38:00;100095.66;;;12.20;71.77
60258;BME280;46115;44.484;11.314;2024-03-23T02:42:04;100098.38;;;12.18;71.48
60258;BME280;46115;44.484;11.314;2024-03-23T02:46:07;100098.84;;;12.39;70.62
60258;BME280;46115;44.484;11.314;2024-03-23T02:50:09;100088.41;;;12.64;69.31
60258;BME280;46115;44.484;11.314;2024-03-23T02:54:11;100082.75;;;12.42;70.63
60258;BME280;46115;44.484;11.314;2024-03-23T02:58:15;100078.41;;;12.27;70.57
60258;BME280;46115;44.484;11.314;2024-03-23T03:02:18;100088.16;;;12.26;70.95
60258;BME280;46115;44.484;11.314;2024-03-23T03:06:24;100091.19;;;12.34;70.76
60258;BME280;46115;44.484;11.314;2024-03-23T03:10:25;100089.00;;;12.41;70.32
60258;BME280;46115;44.484;11.314;2024-03-23T03:14:29;100087.59;;;12.49;69.16
60258;BME280;46115;44.484;11.314;2024-03-23T03:18:31;100089.56;;;12.46;70.52
60258;BME280;46115;44.484;11.314;2024-03-23T03:22:34;100084.09;;;12.49;69.67
60258;BME280;46115;44.484;11.314;2024-03-23T03:26:36;100089.19;;;12.38;70.02
60258;BME280;46115;44.484;11.314;2024-03-23T03:30:40;100092.59;;;12.54;69.95
60258;BME280;46115;44.484;11.314;2024-03-23T03:34:42;100080.09;;;12.42;70.19
60258;BME280;46115;44.484;11.314;2024-03-23T03:38:44;100070.75;;;12.51;69.54
60258;BME280;46115;44.484;11.314;2024-03-23T03:42:47;100080.56;;;12.48;69.65
60258;BME280;46115;44.484;11.314;2024-03-23T03:46:51;100064.66;;;12.48;70.22
60258;BME280;46115;44.484;11.314;2024-03-23T03:50:54;100069.50;;;12.42;70.01
60258;BME280;46115;44.484;11.314;2024-03-23T03:55:02;100061.94;;;12.36;70.19
60258;BME280;46115;44.484;11.314;2024-03-23T03:59:05;100067.03;;;12.39;69.90
60258;BME280;46115;44.484;11.314;2024-03-23T04:03:09;100061.28;;;12.32;69.87
60258;BME280;46115;44.484;11.314;2024-03-23T04:07:11;100061.25;;;12.46;70.42
60258;BME280;46115;44.484;11.314;2024-03-23T04:11:14;100058.34;;;12.51;69.75
60258;BME280;46115;44.484;11.314;2024-03-23T04:15:16;100054.81;;;12.51;69.09
60258;BME280;46115;44.484;11.314;2024-03-23T04:19:20;100053.78;;;12.39;69.42
60258;BME280;46115;44.484;11.314;2024-03-23T04:23:22;100051.13;;;12.53;69.86
60258;BME280;46115;44.484;11.314;2024-03-23T04:27:25;100045.06;;;12.51;69.29
60258;BME280;46115;44.484;11.314;2024-03-23T04:31:27;100042.69;;;12.46;70.10
60258;BME280;46115;44.484;11.314;2024-03-23T04:35:31;100045.06;;;12.51;69.41
60258;BME280;46115;44.484;11.314;2024-03-23T04:39:33;100019.41;;;12.52;69.46
60258;BME280;46115;44.484;11.314;2024-03-23T04:43:36;100030.03;;;12.52;69.33
60258;BME280;46115;44.484;11.314;2024-03-23T04:47:38;100028.47;;;12.47;69.13
60258;BME280;46115;44.484;11.314;2024-03-23T04:51:42;100032.38;;;12.56;68.47
60258;BME280;46115;44.484;11.314;2024-03-23T04:55:47;100035.31;;;12.52;68.89
60258;BME280;46115;44.484;11.314;2024-03-23T04:59:49;100035.97;;;12.55;68.63
60258;BME280;46115;44.484;11.314;2024-03-23T05:03:51;100036.44;;;12.62;68.48
60258;BME280;46115;44.484;11.314;2024-03-23T05:07:55;100033.69;;;12.63;68.85
60258;BME280;46115;44.484;11.314;2024-03-23T05:11:57;100028.91;;;12.68;68.21
60258;BME280;46115;44.484;11.314;2024-03-23T05:16:00;100026.53;;;12.51;69.48
60258;BME280;46115;44.484;11.314;2024-03-23T05:20:03;100021.22;;;12.51;69.31
60258;BME280;46115;44.484;11.314;2024-03-23T05:24:07;99997.47;;;12.35;68.69
60258;BME280;46115;44.484;11.314;2024-03-23T05:28:09;100001.97;;;12.21;69.64
60258;BME280;46115;44.484;11.314;2024-03-23T05:32:11;99990.31;;;12.09;70.33
60258;BME280;46115;44.484;11.314;2024-03-23T05:36:14;99982.00;;;12.01;71.11
60258;BME280;46115;44.484;11.314;2024-03-23T05:40:17;99964.59;;;11.97;70.64
60258;BME280;46115;44.484;11.314;2024-03-23T05:44:20;99973.94;;;12.02;70.28
60258;BME280;46115;44.484;11.314;2024-03-23T05:48:22;99975.47;;;12.06;70.22
60258;BME280;46115;44.484;11.314;2024-03-23T05:52:24;99977.50;;;12.30;68.83
60258;BME280;46115;44.484;11.314;2024-03-23T05:56:29;99976.13;;;12.78;67.42
60258;BME280;46115;44.484;11.314;2024-03-23T06:00:32;99969.84;;;13.06;65.87
60258;BME280;46115;44.484;11.314;2024-03-23T06:04:34;99989.34;;;13.19;66.26
60258;BME280;46115;44.484;11.314;2024-03-23T06:08:36;99978.94;;;12.89;66.07
60258;BME280;46115;44.484;11.314;2024-03-23T06:12:41;99985.84;;;13.31;65.33
60258;BME280;46115;44.484;11.314;2024-03-23T06:16:43;99996.19;;;13.61;63.82
60258;BME280;46115;44.484;11.314;2024-03-23T06:20:45;99977.91;;;13.95;62.21
60258;BME280;46115;44.484;11.314;2024-03-23T06:24:48;99980.38;;;14.22;61.52
60258;BME280;46115;44.484;11.314;2024-03-23T06:28:51;99980.88;;;14.40;61.83
60258;BME280;46115;44.484;11.314;2024-03-23T06:32:54;99970.81;;;14.69;60.12
60258;BME280;46115;44.484;11.314;2024-03-23T06:36:56;99969.28;;;15.12;58.09
60258;BME280;46115;44.484;11.314;2024-03-23T06:40:58;99963.94;;;15.36;56.32
60258;BME280;46115;44.484;11.314;2024-03-23T06:45:01;99968.47;;;16.25;54.26
60258;BME280;46115;44.484;11.314;2024-03-23T06:49:05;99958.78;;;16.35;54.36
60258;BME280;46115;44.484;11.314;2024-03-23T06:53:08;99960.03;;;17.06;51.90
60258;BME280;46115;44.484;11.314;2024-03-23T06:57:10;99962.78;;;16.84;52.46
60258;BME280;46115;44.484;11.314;2024-03-23T07:01:14;99954.13;;;17.44;50.17
60258;BME280;46115;44.484;11.314;2024-03-23T07:05:16;99944.97;;;17.68;49.82
60258;BME280;46115;44.484;11.314;2024-03-23T07:09:19;99944.78;;;17.81;49.02
60258;BME280;46115;44.484;11.314;2024-03-23T07:13:26;99943.16;;;17.99;48.23
60258;BME280;46115;44.484;11.314;2024-03-23T07:17:29;99942.88;;;18.02;47.72
60258;BME280;46115;44.484;11.314;2024-03-23T07:21:33;99937.31;;;18.24;47.79
60258;BME280;46115;44.484;11.314;2024-03-23T07:25:36;99941.56;;;18.77;46.25
60258;BME280;46115;44.484;11.314;2024-03-23T07:29:38;99926.03;;;18.80;46.46
60258;BME280;46115;44.484;11.314;2024-03-23T07:33:44;99934.16;;;19.37;45.57
60258;BME280;46115;44.484;11.314;2024-03-23T07:37:46;99918.94;;;18.50;46.24
60258;BME280;46115;44.484;11.314;2024-03-23T07:41:48;99929.38;;;18.53;46.97
60258;BME280;46115;44.484;11.314;2024-03-23T07:45:51;99916.34;;;18.29;48.25
60258;BME280;46115;44.484;11.314;2024-03-23T07:49:56;99913.88;;;19.24;46.93
60258;BME280;46115;44.484;11.314;2024-03-23T07:53:58;99897.56;;;19.65;46.43
60258;BME280;46115;44.484;11.314;2024-03-23T07:58:01;99897.88;;;19.52;46.34
60258;BME280;46115;44.484;11.314;2024-03-23T08:02:03;99897.38;;;20.13;45.83
60258;BME280;46115;44.484;11.314;2024-03-23T08:06:08;99877.56;;;20.59;44.96
60258;BME280;46115;44.484;11.314;2024-03-23T08:10:11;99885.56;;;21.30;44.55
60258;BME280;46115;44.484;11.314;2024-03-23T08:14:14;99869.44;;;21.30;44.65
60258;BME280;46115;44.484;11.314;2024-03-23T08:18:16;99869.22;;;21.49;44.17
60258;BME280;46115;44.484;11.314;2024-03-23T08:22:20;99866.91;;;21.11;44.55
60258;BME280;46115;44.484;11.314;2024-03-23T08:26:23;99871.22;;;21.47;43.94
60258;BME280;46115;44.484;11.314;2024-03-23T08:30:25;99860.41;;;21.39;43.92
60258;BME280;46115;44.484;11.314;2024-03-23T08:34:27;99859.22;;;21.68;43.57
60258;BME280;46115;44.484;11.314;2024-03-23T08:38:31;99855.91;;;22.16;43.52
60258;BME280;46115;44.484;11.314;2024-03-23T08:42:33;99851.34;;;22.08;43.40
60258;BME280;46115;44.484;11.314;2024-03-23T08:46:36;99836.34;;;21.64;43.52
60258;BME280;46115;44.484;11.314;2024-03-23T08:50:38;99845.81;;;22.18;43.38
60258;BME280;46115;44.484;11.314;2024-03-23T08:54:42;99838.91;;;22.16;42.34
60258;BME280;46115;44.484;11.314;2024-03-23T08:58:44;99834.53;;;22.15;42.65
60258;BME280;46115;44.484;11.314;2024-03-23T09:02:47;99838.50;;;24.12;41.85
60258;BME280;46115;44.484;11.314;2024-03-23T09:06:50;99829.78;;;23.71;40.82
60258;BME280;46115;44.484;11.314;2024-03-23T09:10:54;99816.59;;;22.88;41.30
60258;BME280;46115;44.484;11.314;2024-03-23T09:14:56;99808.19;;;22.75;41.68
60258;BME280;46115;44.484;11.314;2024-03-23T09:18:59;99792.50;;;22.79;41.41
60258;BME280;46115;44.484;11.314;2024-03-23T09:23:01;99799.75;;;22.54;41.70
60258;BME280;46115;44.484;11.314;2024-03-23T09:27:05;99801.44;;;24.75;39.12
60258;BME280;46115;44.484;11.314;2024-03-23T09:31:08;99808.91;;;25.10;38.05
60258;BME280;46115;44.484;11.314;2024-03-23T09:35:12;99788.31;;;24.49;37.83
60258;BME280;46115;44.484;11.314;2024-03-23T09:39:14;99781.84;;;23.26;39.15
60258;BME280;46115;44.484;11.314;2024-03-23T09:43:18;99775.09;;;23.22;40.15
60258;BME280;46115;44.484;11.314;2024-03-23T09:47:21;99785.44;;;23.02;40.43
60258;BME280;46115;44.484;11.314;2024-03-23T09:51:23;99781.78;;;24.43;39.55
60258;BME280;46115;44.484;11.314;2024-03-23T09:55:26;99761.88;;;23.59;39.66
60258;BME280;46115;44.484;11.314;2024-03-23T09:59:30;99760.38;;;23.41;39.43
60258;BME280;46115;44.484;11.314;2024-03-23T10:03:42;99756.63;;;23.50;39.60
60258;BME280;46115;44.484;11.314;2024-03-23T10:07:44;99752.00;;;23.75;39.95
60258;BME280;46115;44.484;11.314;2024-03-23T10:11:46;99749.75;;;23.00;39.97
60258;BME280;46115;44.484;11.314;2024-03-23T10:15:56;99738.63;;;22.54;40.98
60258;BME280;46115;44.484;11.314;2024-03-23T10:19:59;99732.41;;;22.86;40.76
60258;BME280;46115;44.484;11.314;2024-03-23T10:24:08;99731.66;;;23.25;40.96
60258;BME280;46115;44.484;11.314;2024-03-23T10:28:10;99734.78;;;22.49;40.09
60258;BME280;46115;44.484;11.314;2024-03-23T10:32:17;99731.91;;;22.91;40.81
60258;BME280;46115;44.484;11.314;2024-03-23T10:36:20;99720.50;;;22.24;41.12
60258;BME280;46115;44.484;11.314;2024-03-23T10:40:24;99706.31;;;22.54;40.81
60258;BME280;46115;44.484;11.314;2024-03-23T10:44:28;99712.06;;;22.35;41.64
60258;BME280;46115;44.484;11.314;2024-03-23T10:48:33;99701.94;;;21.96;41.21
60258;BME280;46115;44.484;11.314;2024-03-23T10:52:36;99693.53;;;22.48;41.23
60258;BME280;46115;44.484;11.314;2024-03-23T10:56:39;99694.94;;;22.28;40.68
60258;BME280;46115;44.484;11.314;2024-03-23T11:00:42;99683.63;;;22.49;41.47
60258;BME280;46115;44.484;11.314;2024-03-23T11:04:46;99674.22;;;22.12;40.96
60258;BME280;46115;44.484;11.314;2024-03-23T11:08:49;99668.16;;;22.26;42.04
60258;BME280;46115;44.484;11.314;2024-03-23T11:12:51;99661.31;;;21.41;42.10
60258;BME280;46115;44.484;11.314;2024-03-23T11:17:08;99660.22;;;21.92;41.81
60258;BME280;46115;44.484;11.314;2024-03-23T11:25:53;99615.47;;;21.83;41.75
60258;BME280;46115;44.484;11.314;2024-03-23T11:30:10;99614.31;;;22.34;42.66
60258;BME280;46115;44.484;11.314;2024-03-23T11:34:13;99620.53;;;22.19;42.84
60258;BME280;46115;44.484;11.314;2024-03-23T11:38:18;99604.91;;;22.14;41.02
60258;BME280;46115;44.484;11.314;2024-03-23T11:42:21;99584.88;;;21.84;41.08
60258;BME280;46115;44.484;11.314;2024-03-23T11:46:23;99581.88;;;21.95;40.95
60258;BME280;46115;44.484;11.314;2024-03-23T11:50:25;99558.00;;;21.76;40.74
60258;BME280;46115;44.484;11.314;2024-03-23T11:54:29;99559.00;;;22.24;42.84
60258;BME280;46115;44.484;11.314;2024-03-23T11:58:31;99547.38;;;21.50;42.09
60258;BME280;46115;44.484;11.314;2024-03-23T12:02:34;99509.41;;;21.37;43.11
60258;BME280;46115;44.484;11.314;2024-03-23T12:06:36;99551.59;;;21.93;44.67
60258;BME280;46115;44.484;11.314;2024-03-23T12:10:40;99540.84;;;21.93;44.54
60258;BME280;46115;44.484;11.314;2024-03-23T12:14:42;99536.28;;;22.10;44.49
60258;BME280;46115;44.484;11.314;2024-03-23T12:18:46;99516.09;;;22.14;44.47
60258;BME280;46115;44.484;11.314;2024-03-23T12:22:50;99504.13;;;22.25;44.29
60258;BME280;46115;44.484;11.314;2024-03-23T12:26:53;99503.09;;;22.34;45.45
60258;BME280;46115;44.484;11.314;2024-03-23T12:30:55;99503.44;;;22.31;46.43
60258;BME280;46115;44.484;11.314;2024-03-23T12:34:57;99503.38;;;22.47;45.42
60258;BME280;46115;44.484;11.314;2024-03-23T12:39:00;99490.66;;;22.33;43.49
60258;BME280;46115;44.484;11.314;2024-03-23T12:43:04;99494.91;;;22.11;45.66
60258;BME280;46115;44.484;11.314;2024-03-23T12:47:06;99481.44;;;22.03;43.08
60258;BME280;46115;44.484;11.314;2024-03-23T12:51:07;99484.31;;;21.85;43.80
60258;BME280;46115;44.484;11.314;2024-03-23T12:55:10;99471.56;;;22.03;44.02
60258;BME280;46115;44.484;11.314;2024-03-23T12:59:14;99461.97;;;21.85;44.50
60258;BME280;46115;44.484;11.314;2024-03-23T13:03:17;99458.66;;;21.42;44.37
60258;BME280;46115;44.484;11.314;2024-03-23T13:07:20;99454.81;;;21.36;45.34
60258;BME280;46115;44.484;11.314;2024-03-23T13:11:23;99435.25;;;20.77;46.22
60258;BME280;46115;44.484;11.314;2024-03-23T13:15:27;99431.81;;;21.26;46.37
60258;BME280;46115;44.484;11.314;2024-03-23T13:19:29;99425.06;;;20.89;47.11
60258;BME280;46115;44.484;11.314;2024-03-23T13:23:32;99408.44;;;20.94;46.83
60258;BME280;46115;44.484;11.314;2024-03-23T13:27:36;99423.38;;;20.88;47.29
60258;BME280;46115;44.484;11.314;2024-03-23T13:31:40;99401.81;;;20.47;46.78
60258;BME280;46115;44.484;11.314;2024-03-23T13:35:49;99399.81;;;20.58;47.71
60258;BME280;46115;44.484;11.314;2024-03-23T13:39:51;99408.03;;;20.48;48.04
60258;BME280;46115;44.484;11.314;2024-03-23T13:43:54;99388.59;;;20.62;48.11
60258;BME280;46115;44.484;11.314;2024-03-23T13:51:59;99377.28;;;20.42;47.14
60258;BME280;46115;44.484;11.314;2024-03-23T13:56:02;99375.28;;;20.44;47.32
60258;BME280;46115;44.484;11.314;2024-03-23T14:00:06;99368.56;;;20.40;46.70
60258;BME280;46115;44.484;11.314;2024-03-23T14:04:15;99357.16;;;20.46;46.47
60258;BME280;46115;44.484;11.314;2024-03-23T14:08:17;99354.19;;;20.58;46.39
60258;BME280;46115;44.484;11.314;2024-03-23T14:12:21;99352.50;;;20.48;46.26
60258;BME280;46115;44.484;11.314;2024-03-23T14:16:24;99341.34;;;20.19;46.80
60258;BME280;46115;44.484;11.314;2024-03-23T14:20:28;99344.53;;;20.22;46.97
60258;BME280;46115;44.484;11.314;2024-03-23T14:24:32;99317.19;;;20.35;47.04
60258;BME280;46115;44.484;11.314;2024-03-23T14:28:35;99289.34;;;20.20;47.28
60258;BME280;46115;44.484;11.314;2024-03-23T14:32:37;99325.75;;;20.39;46.96
60258;BME280;46115;44.484;11.314;2024-03-23T14:36:41;99326.25;;;20.34;47.03
60258;BME280;46115;44.484;11.314;2024-03-23T14:40:43;99323.22;;;20.29;47.10
60258;BME280;46115;44.484;11.314;2024-03-23T14:44:46;99321.56;;;20.28;47.15
60258;BME280;46115;44.484;11.314;2024-03-23T14:48:47;99312.66;;;20.19;47.44
60258;BME280;46115;44.484;11.314;2024-03-23T14:52:51;99309.13;;;20.19;48.19
60258;BME280;46115;44.484;11.314;2024-03-23T14:56:54;99308.47;;;20.17;47.82
60258;BME280;46115;44.484;11.314;2024-03-23T15:01:00;99309.63;;;20.14;48.46
60258;BME280;46115;44.484;11.314;2024-03-23T15:05:04;99321.66;;;20.10;48.80
60258;BME280;46115;44.484;11.314;2024-03-23T15:09:12;99317.63;;;20.06;48.61
60258;BME280;46115;44.484;11.314;2024-03-23T15:13:15;99318.97;;;20.10;49.12
60258;BME280;46115;44.484;11.314;2024-03-23T15:17:17;99320.97;;;20.00;49.13
60258;BME280;46115;44.484;11.314;2024-03-23T15:21:19;99333.84;;;19.88;49.36
60258;BME280;46115;44.484;11.314;2024-03-23T15:25:24;99324.66;;;19.99;49.36
60258;BME280;46115;44.484;11.314;2024-03-23T15:29:26;99328.09;;;19.75;49.40
60258;BME280;46115;44.484;11.314;2024-03-23T15:33:28;99327.88;;;19.69;50.31
60258;BME280;46115;44.484;11.314;2024-03-23T15:37:31;99328.25;;;19.74;49.90
60258;BME280;46115;44.484;11.314;2024-03-23T15:41:36;99325.34;;;19.59;50.00
60258;BME280;46115;44.484;11.314;2024-03-23T15:45:38;99328.19;;;19.57;50.17
60258;BME280;46115;44.484;11.314;2024-03-23T15:49:41;99337.00;;;19.50;50.21
60258;BME280;46115;44.484;11.314;2024-03-23T15:53:44;99330.78;;;19.49;50.08
60258;BME280;46115;44.484;11.314;2024-03-23T15:57:47;99329.53;;;19.36;50.72
60258;BME280;46115;44.484;11.314;2024-03-23T16:01:50;99324.41;;;19.16;50.81
60258;BME280;46115;44.484;11.314;2024-03-23T16:05:53;99332.31;;;19.26;51.48
60258;BME280;46115;44.484;11.314;2024-03-23T16:09:55;99329.25;;;19.13;51.83
60258;BME280;46115;44.484;11.314;2024-03-23T16:14:01;99328.59;;;19.19;52.13
60258;BME280;46115;44.484;11.314;2024-03-23T16:18:04;99321.75;;;18.98;52.06
60258;BME280;46115;44.484;11.314;2024-03-23T16:22:05;99319.53;;;19.12;51.89
60258;BME280;46115;44.484;11.314;2024-03-23T16:26:08;99320.72;;;19.17;52.08
60258;BME280;46115;44.484;11.314;2024-03-23T16:30:13;99318.66;;;18.85;52.35
60258;BME280;46115;44.484;11.314;2024-03-23T16:34:16;99326.31;;;18.80;52.25
60258;BME280;46115;44.484;11.314;2024-03-23T16:38:19;99311.94;;;18.81;52.86
60258;BME280;46115;44.484;11.314;2024-03-23T16:42:21;99317.06;;;18.75;53.15
60258;BME280;46115;44.484;11.314;2024-03-23T16:46:25;99328.38;;;18.86;53.07
60258;BME280;46115;44.484;11.314;2024-03-23T16:50:27;99333.50;;;18.62;53.82
60258;BME280;46115;44.484;11.314;2024-03-23T16:54:30;99341.53;;;18.62;53.13
60258;BME280;46115;44.484;11.314;2024-03-23T16:58:33;99327.84;;;18.47;53.44
60258;BME280;46115;44.484;11.314;2024-03-23T17:02:37;99328.97;;;18.27;53.13
60258;BME280;46115;44.484;11.314;2024-03-23T17:06:40;99356.09;;;18.32;53.25
60258;BME280;46115;44.484;11.314;2024-03-23T17:10:43;99343.03;;;18.29;53.25
60258;BME280;46115;44.484;11.314;2024-03-23T17:14:46;99334.00;;;18.12;53.61
60258;BME280;46115;44.484;11.314;2024-03-23T17:18:48;99337.13;;;18.25;53.50
60258;BME280;46115;44.484;11.314;2024-03-23T17:22:53;99336.00;;;18.00;53.26
60258;BME280;46115;44.484;11.314;2024-03-23T17:26:56;99335.16;;;18.00;53.39
60258;BME280;46115;44.484;11.314;2024-03-23T17:30:58;99338.53;;;18.02;52.82
60258;BME280;46115;44.484;11.314;2024-03-23T17:35:03;99347.38;;;18.12;52.88
60258;BME280;46115;44.484;11.314;2024-03-23T17:39:06;99320.50;;;17.86;53.51
60258;BME280;46115;44.484;11.314;2024-03-23T17:43:10;99296.09;;;17.62;54.25
60258;BME280;46115;44.484;11.314;2024-03-23T17:47:13;99291.50;;;17.54;54.52
60258;BME280;46115;44.484;11.314;2024-03-23T17:51:17;99284.81;;;17.40;55.09
60258;BME280;46115;44.484;11.314;2024-03-23T17:55:19;99305.06;;;17.43;54.76
60258;BME280;46115;44.484;11.314;2024-03-23T17:59:22;99293.53;;;17.42;55.14
60258;BME280;46115;44.484;11.314;2024-03-23T18:03:24;99307.19;;;17.39;54.82
60258;BME280;46115;44.484;11.314;2024-03-23T23:06:10;99358.38;;;15.69;57.73
60258;BME280;46115;44.484;11.314;2024-03-23T23:10:12;99357.53;;;15.69;57.90
60258;BME280;46115;44.484;11.314;2024-03-23T23:14:14;99360.34;;;15.67;57.76
60258;BME280;46115;44.484;11.314;2024-03-23T23:18:16;99348.75;;;15.57;58.36
60258;BME280;46115;44.484;11.314;2024-03-23T23:22:20;99359.69;;;15.54;57.95
60258;BME280;46115;44.484;11.314;2024-03-23T23:26:21;99364.63;;;15.58;58.13
60258;BME280;46115;44.484;11.314;2024-03-23T23:30:24;99354.88;;;15.48;58.19
60258;BME280;46115;44.484;11.314;2024-03-23T23:34:26;99359.81;;;15.52;57.99
60258;BME280;46115;44.484;11.314;2024-03-23T23:38:30;99359.38;;;15.47;57.81
60258;BME280;46115;44.484;11.314;2024-03-23T23:42:32;99348.31;;;15.52;57.60
60258;BME280;46115;44.484;11.314;2024-03-23T23:46:34;99351.69;;;15.54;57.89
60258;BME280;46115;44.484;11.314;2024-03-23T23:50:37;99352.44;;;15.35;58.13
60258;BME280;46115;44.484;11.314;2024-03-23T23:54:41;99350.50;;;15.37;58.58
60258;BME280;46115;44.484;11.314;2024-03-23T23:58:43;99350.50;;;15.37;58.47
